PILOTS ONLINE: 473    ATC ONLINE: 60

ZUJZ

Jiuzhai Huanglong Airport

Location

IATA JZH
City Jiuzhaigou
Country  China
Latitude 32° 51' 11" N
Longitude 103° 40' 55" E
Elevation 11327 ft
Type Medium Airport

Map

Weather

METAR
2008/06/22 04:00
ZUJZ 220400Z VRB01MPS 7000 -RA FEW/// SCT006 OVC040 10/08 Q1024 NOSIG
TAF
No TAF available

Runways

Outbound flights

Callsign Flying to Pilot ATD/STD ETA Aircraft

Inbound flights

Callsign Flying from Pilot ATD ETA Aircraft